MNL weather

Ninoy Aquino International Airport
Manila, Philippines

Public forecast

Using degrees Celsius for public forecast. Weather courtesy of forecast.io.

METAR (pilot weather report)

Retrieved 2017/06/26 22:00 UTC (3 minutes ago):

RPLL 262200Z 00000KT 9999 FEW022CB SCT023 BKN250 27/27 Q1011 NOSIG RMK A2985 CB SE

TAF (pilot weather forecast)

Retrieved 2017/06/26 18:00 UTC (4 hours ago):

TAF RPLL 261700Z 2618/2724 12006KT 9999 FEW025 SCT100 TX34/2706Z TN26/2621Z TEMPO 2618/2624 VRB02KT FEW023 BKN100 TEMPO 2706/2712 10007KT 9000 TS -SHRA FEW022CB SCT023 BKN100